Schoolfield, Virginia
Current Conditions -  °F | °C
As of 8:20 AM on Thursday 27 Nov 2014 (Local Time) from KDAN Reporting Station
Light Rain Light Rain  
Wind Chill: 37°   Ceiling: 3100
Heat Index: 41°   Visibility: 8mi
Dew Point: 38°   Wind: 6mph
Humidity: 89%   Direction: 70°ENE
Pressure: 30.02"   Gusts: NA
Location:  36.5958°N, 79.5402°W
Report Text: KDAN 271320Z AUTO 07005KT 8SM -RA BKN031 BKN041 OVC048 05/03 A3002 RMK AO2 P0002 T00500033
Loading
Personal Weather Stations






























Interactive Weather Map New forecast layout! Learn more

10-Day Weather Forecast

Advertisements
Track Severe Weather on mobile